sensor_id;sensor_type;location;lat;lon;timestamp;P1;durP1;ratioP1;P2;durP2;ratioP2
10721;SDS011;5412;59.450;18.124;2024-02-23T00:00:09;14.13;;;9.00;;
10721;SDS011;5412;59.450;18.124;2024-02-23T00:02:37;22.83;;;10.97;;
10721;SDS011;5412;59.450;18.124;2024-02-23T00:05:02;20.03;;;9.63;;
10721;SDS011;5412;59.450;18.124;2024-02-23T00:07:29;18.43;;;10.67;;
10721;SDS011;5412;59.450;18.124;2024-02-23T00:09:54;23.40;;;10.43;;
10721;SDS011;5412;59.450;18.124;2024-02-23T00:12:20;18.57;;;10.80;;
10721;SDS011;5412;59.450;18.124;2024-02-23T00:14:46;23.37;;;11.43;;
10721;SDS011;5412;59.450;18.124;2024-02-23T00:17:12;18.03;;;10.43;;
10721;SDS011;5412;59.450;18.124;2024-02-23T00:19:37;23.67;;;10.87;;
10721;SDS011;5412;59.450;18.124;2024-02-23T00:22:04;19.13;;;10.67;;
10721;SDS011;5412;59.450;18.124;2024-02-23T00:24:32;18.40;;;10.77;;
10721;SDS011;5412;59.450;18.124;2024-02-23T00:26:57;17.77;;;10.47;;
10721;SDS011;5412;59.450;18.124;2024-02-23T00:29:23;15.47;;;10.67;;
10721;SDS011;5412;59.450;18.124;2024-02-23T00:31:49;20.90;;;10.00;;
10721;SDS011;5412;59.450;18.124;2024-02-23T00:34:15;17.80;;;10.43;;
10721;SDS011;5412;59.450;18.124;2024-02-23T00:36:41;15.00;;;9.73;;
10721;SDS011;5412;59.450;18.124;2024-02-23T00:39:09;16.60;;;9.33;;
10721;SDS011;5412;59.450;18.124;2024-02-23T00:41:35;15.77;;;9.60;;
10721;SDS011;5412;59.450;18.124;2024-02-23T00:44:02;17.83;;;10.37;;
10721;SDS011;5412;59.450;18.124;2024-02-23T00:46:28;13.53;;;9.60;;
10721;SDS011;5412;59.450;18.124;2024-02-23T00:48:54;17.87;;;9.00;;
10721;SDS011;5412;59.450;18.124;2024-02-23T00:51:20;16.60;;;9.60;;
10721;SDS011;5412;59.450;18.124;2024-02-23T00:53:46;53.33;;;28.33;;
10721;SDS011;5412;59.450;18.124;2024-02-23T00:56:12;21.40;;;10.57;;
10721;SDS011;5412;59.450;18.124;2024-02-23T00:58:38;11.77;;;7.77;;
10721;SDS011;5412;59.450;18.124;2024-02-23T01:01:04;20.00;;;11.17;;
10721;SDS011;5412;59.450;18.124;2024-02-23T01:03:30;15.87;;;9.10;;
10721;SDS011;5412;59.450;18.124;2024-02-23T01:05:55;17.13;;;9.37;;
10721;SDS011;5412;59.450;18.124;2024-02-23T01:08:21;14.80;;;8.43;;
10721;SDS011;5412;59.450;18.124;2024-02-23T01:10:46;16.93;;;9.17;;
10721;SDS011;5412;59.450;18.124;2024-02-23T01:13:12;13.97;;;8.77;;
10721;SDS011;5412;59.450;18.124;2024-02-23T01:15:38;17.73;;;9.63;;
10721;SDS011;5412;59.450;18.124;2024-02-23T01:18:04;17.83;;;9.63;;
10721;SDS011;5412;59.450;18.124;2024-02-23T01:20:33;15.97;;;8.60;;
10721;SDS011;5412;59.450;18.124;2024-02-23T01:22:59;14.13;;;8.33;;
10721;SDS011;5412;59.450;18.124;2024-02-23T01:25:25;12.47;;;7.27;;
10721;SDS011;5412;59.450;18.124;2024-02-23T01:27:51;13.63;;;7.73;;
10721;SDS011;5412;59.450;18.124;2024-02-23T01:30:17;13.03;;;8.07;;
10721;SDS011;5412;59.450;18.124;2024-02-23T01:32:44;13.57;;;7.77;;
10721;SDS011;5412;59.450;18.124;2024-02-23T01:35:10;16.43;;;8.17;;
10721;SDS011;5412;59.450;18.124;2024-02-23T01:37:36;17.00;;;8.97;;
10721;SDS011;5412;59.450;18.124;2024-02-23T01:40:02;16.53;;;9.57;;
10721;SDS011;5412;59.450;18.124;2024-02-23T01:42:28;15.27;;;9.03;;
10721;SDS011;5412;59.450;18.124;2024-02-23T01:44:54;14.43;;;9.13;;
10721;SDS011;5412;59.450;18.124;2024-02-23T01:47:23;19.17;;;9.67;;
10721;SDS011;5412;59.450;18.124;2024-02-23T01:49:49;16.33;;;9.43;;
10721;SDS011;5412;59.450;18.124;2024-02-23T01:52:16;13.73;;;9.30;;
10721;SDS011;5412;59.450;18.124;2024-02-23T01:54:43;15.23;;;9.83;;
10721;SDS011;5412;59.450;18.124;2024-02-23T01:57:09;15.80;;;9.07;;
10721;SDS011;5412;59.450;18.124;2024-02-23T01:59:35;18.63;;;9.47;;
10721;SDS011;5412;59.450;18.124;2024-02-23T02:02:03;14.13;;;9.60;;
10721;SDS011;5412;59.450;18.124;2024-02-23T02:04:29;14.63;;;9.33;;
10721;SDS011;5412;59.450;18.124;2024-02-23T02:06:55;16.93;;;10.53;;
10721;SDS011;5412;59.450;18.124;2024-02-23T02:09:23;21.77;;;10.30;;
10721;SDS011;5412;59.450;18.124;2024-02-23T02:11:49;17.27;;;10.50;;
10721;SDS011;5412;59.450;18.124;2024-02-23T02:14:15;18.37;;;10.10;;
10721;SDS011;5412;59.450;18.124;2024-02-23T02:16:41;17.10;;;10.23;;
10721;SDS011;5412;59.450;18.124;2024-02-23T02:19:09;18.70;;;11.13;;
10721;SDS011;5412;59.450;18.124;2024-02-23T02:21:35;17.70;;;11.07;;
10721;SDS011;5412;59.450;18.124;2024-02-23T02:24:02;18.07;;;10.37;;
10721;SDS011;5412;59.450;18.124;2024-02-23T02:26:28;17.80;;;11.40;;
10721;SDS011;5412;59.450;18.124;2024-02-23T02:28:54;36.43;;;21.13;;
10721;SDS011;5412;59.450;18.124;2024-02-23T02:31:19;18.20;;;11.53;;
10721;SDS011;5412;59.450;18.124;2024-02-23T02:33:45;35.73;;;18.37;;
10721;SDS011;5412;59.450;18.124;2024-02-23T02:36:11;21.40;;;12.93;;
10721;SDS011;5412;59.450;18.124;2024-02-23T02:38:37;34.03;;;18.43;;
10721;SDS011;5412;59.450;18.124;2024-02-23T02:41:03;20.13;;;11.93;;
10721;SDS011;5412;59.450;18.124;2024-02-23T02:43:30;18.73;;;10.60;;
10721;SDS011;5412;59.450;18.124;2024-02-23T02:45:56;16.63;;;10.03;;
10721;SDS011;5412;59.450;18.124;2024-02-23T02:48:22;17.20;;;10.03;;
10721;SDS011;5412;59.450;18.124;2024-02-23T02:50:48;18.93;;;10.97;;
10721;SDS011;5412;59.450;18.124;2024-02-23T02:53:15;15.30;;;10.67;;
10721;SDS011;5412;59.450;18.124;2024-02-23T02:55:44;17.70;;;10.40;;
10721;SDS011;5412;59.450;18.124;2024-02-23T02:58:11;16.13;;;9.80;;
10721;SDS011;5412;59.450;18.124;2024-02-23T03:00:37;16.83;;;10.23;;
10721;SDS011;5412;59.450;18.124;2024-02-23T03:03:03;14.33;;;9.27;;
10721;SDS011;5412;59.450;18.124;2024-02-23T03:05:29;14.70;;;9.93;;
10721;SDS011;5412;59.450;18.124;2024-02-23T03:07:55;14.80;;;10.10;;
10721;SDS011;5412;59.450;18.124;2024-02-23T03:10:20;17.53;;;9.77;;
10721;SDS011;5412;59.450;18.124;2024-02-23T03:12:46;17.33;;;9.33;;
10721;SDS011;5412;59.450;18.124;2024-02-23T03:15:12;13.33;;;9.00;;
10721;SDS011;5412;59.450;18.124;2024-02-23T03:17:38;12.53;;;8.77;;
10721;SDS011;5412;59.450;18.124;2024-02-23T03:20:04;13.90;;;9.20;;
10721;SDS011;5412;59.450;18.124;2024-02-23T03:22:39;14.33;;;9.90;;
10721;SDS011;5412;59.450;18.124;2024-02-23T03:25:04;11.63;;;8.40;;
10721;SDS011;5412;59.450;18.124;2024-02-23T03:27:35;10.80;;;8.40;;
10721;SDS011;5412;59.450;18.124;2024-02-23T03:30:02;13.57;;;8.90;;
10721;SDS011;5412;59.450;18.124;2024-02-23T03:32:28;16.77;;;9.10;;
10721;SDS011;5412;59.450;18.124;2024-02-23T03:34:56;11.53;;;7.97;;
10721;SDS011;5412;59.450;18.124;2024-02-23T03:37:22;9.47;;;7.00;;
10721;SDS011;5412;59.450;18.124;2024-02-23T03:39:47;10.83;;;7.43;;
10721;SDS011;5412;59.450;18.124;2024-02-23T03:42:14;9.77;;;7.43;;
10721;SDS011;5412;59.450;18.124;2024-02-23T03:44:40;10.47;;;7.50;;
10721;SDS011;5412;59.450;18.124;2024-02-23T03:47:07;10.37;;;7.40;;
10721;SDS011;5412;59.450;18.124;2024-02-23T03:49:33;9.67;;;7.30;;
10721;SDS011;5412;59.450;18.124;2024-02-23T03:51:59;9.63;;;7.33;;
10721;SDS011;5412;59.450;18.124;2024-02-23T03:54:24;9.47;;;7.60;;
10721;SDS011;5412;59.450;18.124;2024-02-23T03:56:50;8.10;;;6.50;;
10721;SDS011;5412;59.450;18.124;2024-02-23T03:59:16;9.97;;;7.60;;
10721;SDS011;5412;59.450;18.124;2024-02-23T04:01:41;13.33;;;7.90;;
10721;SDS011;5412;59.450;18.124;2024-02-23T04:04:07;13.63;;;9.47;;
10721;SDS011;5412;59.450;18.124;2024-02-23T04:06:33;18.00;;;10.87;;
10721;SDS011;5412;59.450;18.124;2024-02-23T04:08:59;19.90;;;11.50;;
10721;SDS011;5412;59.450;18.124;2024-02-23T04:11:25;25.60;;;13.90;;
10721;SDS011;5412;59.450;18.124;2024-02-23T04:13:50;24.90;;;13.70;;
10721;SDS011;5412;59.450;18.124;2024-02-23T04:16:16;22.57;;;12.97;;
10721;SDS011;5412;59.450;18.124;2024-02-23T04:18:42;23.73;;;12.00;;
10721;SDS011;5412;59.450;18.124;2024-02-23T04:21:08;23.40;;;12.43;;
10721;SDS011;5412;59.450;18.124;2024-02-23T04:23:33;19.83;;;11.93;;
10721;SDS011;5412;59.450;18.124;2024-02-23T04:25:59;25.53;;;12.73;;
10721;SDS011;5412;59.450;18.124;2024-02-23T04:28:25;18.03;;;12.00;;
10721;SDS011;5412;59.450;18.124;2024-02-23T04:30:53;16.17;;;10.30;;
10721;SDS011;5412;59.450;18.124;2024-02-23T04:33:18;15.97;;;10.43;;
10721;SDS011;5412;59.450;18.124;2024-02-23T04:35:44;13.33;;;9.10;;
10721;SDS011;5412;59.450;18.124;2024-02-23T04:38:09;12.80;;;8.90;;
10721;SDS011;5412;59.450;18.124;2024-02-23T04:40:36;15.53;;;9.00;;
10721;SDS011;5412;59.450;18.124;2024-02-23T04:43:01;12.03;;;8.03;;
10721;SDS011;5412;59.450;18.124;2024-02-23T04:45:27;13.40;;;7.97;;
10721;SDS011;5412;59.450;18.124;2024-02-23T04:47:53;12.50;;;8.37;;
10721;SDS011;5412;59.450;18.124;2024-02-23T04:50:19;13.47;;;8.47;;
10721;SDS011;5412;59.450;18.124;2024-02-23T04:52:44;12.27;;;7.93;;
10721;SDS011;5412;59.450;18.124;2024-02-23T04:55:10;10.67;;;7.80;;
10721;SDS011;5412;59.450;18.124;2024-02-23T04:57:36;9.23;;;6.90;;
10721;SDS011;5412;59.450;18.124;2024-02-23T05:00:03;8.60;;;6.80;;
10721;SDS011;5412;59.450;18.124;2024-02-23T05:02:32;9.67;;;6.30;;
10721;SDS011;5412;59.450;18.124;2024-02-23T05:05:01;8.00;;;5.70;;
10721;SDS011;5412;59.450;18.124;2024-02-23T05:07:29;8.53;;;6.13;;
10721;SDS011;5412;59.450;18.124;2024-02-23T05:09:58;7.70;;;6.20;;
10721;SDS011;5412;59.450;18.124;2024-02-23T05:12:24;7.47;;;5.43;;
10721;SDS011;5412;59.450;18.124;2024-02-23T05:14:49;5.87;;;4.93;;
10721;SDS011;5412;59.450;18.124;2024-02-23T05:17:15;6.93;;;4.70;;
10721;SDS011;5412;59.450;18.124;2024-02-23T05:19:41;6.07;;;4.50;;
10721;SDS011;5412;59.450;18.124;2024-02-23T05:22:06;7.00;;;4.93;;
10721;SDS011;5412;59.450;18.124;2024-02-23T05:24:32;6.93;;;4.70;;
10721;SDS011;5412;59.450;18.124;2024-02-23T05:26:58;8.03;;;5.83;;
10721;SDS011;5412;59.450;18.124;2024-02-23T05:29:27;8.73;;;5.40;;
10721;SDS011;5412;59.450;18.124;2024-02-23T05:31:52;7.37;;;5.70;;
10721;SDS011;5412;59.450;18.124;2024-02-23T05:34:18;5.30;;;4.77;;
10721;SDS011;5412;59.450;18.124;2024-02-23T05:36:45;5.70;;;4.63;;
10721;SDS011;5412;59.450;18.124;2024-02-23T05:39:11;6.10;;;4.63;;
10721;SDS011;5412;59.450;18.124;2024-02-23T05:41:38;9.13;;;5.13;;
10721;SDS011;5412;59.450;18.124;2024-02-23T05:44:04;8.37;;;5.77;;
10721;SDS011;5412;59.450;18.124;2024-02-23T05:46:34;10.87;;;7.13;;
10721;SDS011;5412;59.450;18.124;2024-02-23T05:49:01;14.27;;;7.30;;
10721;SDS011;5412;59.450;18.124;2024-02-23T05:51:28;14.97;;;7.70;;
10721;SDS011;5412;59.450;18.124;2024-02-23T05:53:57;11.67;;;6.73;;
10721;SDS011;5412;59.450;18.124;2024-02-23T05:56:23;10.33;;;6.90;;
10721;SDS011;5412;59.450;18.124;2024-02-23T05:58:50;9.13;;;6.43;;
10721;SDS011;5412;59.450;18.124;2024-02-23T06:01:16;10.20;;;7.33;;
10721;SDS011;5412;59.450;18.124;2024-02-23T06:03:43;12.83;;;7.13;;
10721;SDS011;5412;59.450;18.124;2024-02-23T06:06:09;16.23;;;8.40;;
10721;SDS011;5412;59.450;18.124;2024-02-23T06:08:35;16.57;;;8.50;;
10721;SDS011;5412;59.450;18.124;2024-02-23T06:11:01;27.87;;;8.30;;
10721;SDS011;5412;59.450;18.124;2024-02-23T06:13:29;13.20;;;7.87;;
10721;SDS011;5412;59.450;18.124;2024-02-23T06:15:55;14.70;;;8.27;;
10721;SDS011;5412;59.450;18.124;2024-02-23T06:18:20;11.83;;;7.73;;
10721;SDS011;5412;59.450;18.124;2024-02-23T06:20:46;13.37;;;8.03;;
10721;SDS011;5412;59.450;18.124;2024-02-23T06:23:15;12.37;;;7.37;;
10721;SDS011;5412;59.450;18.124;2024-02-23T06:25:42;12.37;;;8.00;;
10721;SDS011;5412;59.450;18.124;2024-02-23T06:28:09;10.93;;;6.80;;
10721;SDS011;5412;59.450;18.124;2024-02-23T06:30:35;11.07;;;6.60;;
10721;SDS011;5412;59.450;18.124;2024-02-23T06:33:01;7.60;;;5.67;;
10721;SDS011;5412;59.450;18.124;2024-02-23T06:35:27;7.33;;;5.43;;
10721;SDS011;5412;59.450;18.124;2024-02-23T06:37:52;7.90;;;6.13;;
10721;SDS011;5412;59.450;18.124;2024-02-23T06:40:18;12.80;;;7.10;;
10721;SDS011;5412;59.450;18.124;2024-02-23T06:42:44;14.97;;;8.20;;
10721;SDS011;5412;59.450;18.124;2024-02-23T06:45:09;14.20;;;9.43;;
10721;SDS011;5412;59.450;18.124;2024-02-23T06:47:35;19.57;;;9.90;;
10721;SDS011;5412;59.450;18.124;2024-02-23T06:50:01;16.97;;;10.43;;
10721;SDS011;5412;59.450;18.124;2024-02-23T06:52:28;18.03;;;10.97;;
10721;SDS011;5412;59.450;18.124;2024-02-23T06:54:54;15.03;;;10.00;;
10721;SDS011;5412;59.450;18.124;2024-02-23T06:57:19;14.30;;;9.23;;
10721;SDS011;5412;59.450;18.124;2024-02-23T06:59:45;16.20;;;9.73;;
10721;SDS011;5412;59.450;18.124;2024-02-23T07:02:11;13.03;;;9.90;;
10721;SDS011;5412;59.450;18.124;2024-02-23T07:04:37;15.10;;;9.57;;
10721;SDS011;5412;59.450;18.124;2024-02-23T07:07:02;14.00;;;7.90;;
10721;SDS011;5412;59.450;18.124;2024-02-23T07:09:32;12.93;;;8.70;;
10721;SDS011;5412;59.450;18.124;2024-02-23T07:11:58;11.10;;;8.47;;
10721;SDS011;5412;59.450;18.124;2024-02-23T07:14:24;8.70;;;6.80;;
10721;SDS011;5412;59.450;18.124;2024-02-23T07:16:50;9.73;;;6.63;;
10721;SDS011;5412;59.450;18.124;2024-02-23T07:19:17;8.97;;;6.13;;
10721;SDS011;5412;59.450;18.124;2024-02-23T07:21:45;8.53;;;6.97;;
10721;SDS011;5412;59.450;18.124;2024-02-23T07:24:11;12.60;;;8.40;;
10721;SDS011;5412;59.450;18.124;2024-02-23T07:26:37;12.35;;;9.20;;
10721;SDS011;5412;59.450;18.124;2024-02-23T07:29:02;13.32;;;8.63;;
10721;SDS011;5412;59.450;18.124;2024-02-23T07:31:28;16.33;;;9.53;;
10721;SDS011;5412;59.450;18.124;2024-02-23T07:33:54;15.87;;;9.77;;
10721;SDS011;5412;59.450;18.124;2024-02-23T07:36:20;15.73;;;9.73;;
10721;SDS011;5412;59.450;18.124;2024-02-23T07:38:45;12.67;;;8.33;;
10721;SDS011;5412;59.450;18.124;2024-02-23T07:41:12;13.77;;;8.50;;
10721;SDS011;5412;59.450;18.124;2024-02-23T07:43:42;10.57;;;8.30;;
10721;SDS011;5412;59.450;18.124;2024-02-23T07:46:09;11.53;;;7.73;;
10721;SDS011;5412;59.450;18.124;2024-02-23T07:48:35;13.37;;;8.13;;
10721;SDS011;5412;59.450;18.124;2024-02-23T07:51:01;11.50;;;7.90;;
10721;SDS011;5412;59.450;18.124;2024-02-23T07:53:30;13.15;;;9.55;;
10721;SDS011;5412;59.450;18.124;2024-02-23T07:55:56;10.55;;;7.63;;
10721;SDS011;5412;59.450;18.124;2024-02-23T07:58:24;12.37;;;6.80;;
10721;SDS011;5412;59.450;18.124;2024-02-23T08:00:51;8.60;;;6.73;;
10721;SDS011;5412;59.450;18.124;2024-02-23T08:03:18;8.20;;;6.63;;
10721;SDS011;5412;59.450;18.124;2024-02-23T08:05:44;9.77;;;6.43;;
10721;SDS011;5412;59.450;18.124;2024-02-23T08:08:10;8.07;;;5.83;;
10721;SDS011;5412;59.450;18.124;2024-02-23T08:10:35;7.87;;;5.83;;
10721;SDS011;5412;59.450;18.124;2024-02-23T08:13:01;8.80;;;6.10;;
10721;SDS011;5412;59.450;18.124;2024-02-23T08:15:27;7.67;;;5.87;;
10721;SDS011;5412;59.450;18.124;2024-02-23T08:17:52;7.00;;;5.00;;
10721;SDS011;5412;59.450;18.124;2024-02-23T08:20:18;8.53;;;6.20;;
10721;SDS011;5412;59.450;18.124;2024-02-23T08:22:44;9.17;;;5.43;;
10721;SDS011;5412;59.450;18.124;2024-02-23T08:25:10;7.57;;;5.73;;
10721;SDS011;5412;59.450;18.124;2024-02-23T08:27:36;7.77;;;5.80;;
10721;SDS011;5412;59.450;18.124;2024-02-23T08:30:01;6.27;;;5.40;;
10721;SDS011;5412;59.450;18.124;2024-02-23T08:32:28;9.00;;;6.50;;
10721;SDS011;5412;59.450;18.124;2024-02-23T08:34:53;8.23;;;5.80;;
10721;SDS011;5412;59.450;18.124;2024-02-23T08:37:24;9.87;;;6.23;;
10721;SDS011;5412;59.450;18.124;2024-02-23T08:39:51;8.43;;;6.10;;
10721;SDS011;5412;59.450;18.124;2024-02-23T08:42:16;13.03;;;6.83;;
10721;SDS011;5412;59.450;18.124;2024-02-23T08:44:42;8.87;;;6.20;;
10721;SDS011;5412;59.450;18.124;2024-02-23T08:47:08;9.33;;;6.97;;
10721;SDS011;5412;59.450;18.124;2024-02-23T08:49:33;8.83;;;6.53;;
10721;SDS011;5412;59.450;18.124;2024-02-23T08:51:59;10.00;;;6.57;;
10721;SDS011;5412;59.450;18.124;2024-02-23T08:54:25;8.83;;;6.63;;
10721;SDS011;5412;59.450;18.124;2024-02-23T08:56:51;9.83;;;7.00;;
10721;SDS011;5412;59.450;18.124;2024-02-23T08:59:16;12.07;;;6.37;;
10721;SDS011;5412;59.450;18.124;2024-02-23T09:01:42;9.00;;;5.50;;
10721;SDS011;5412;59.450;18.124;2024-02-23T09:04:09;10.07;;;5.90;;
10721;SDS011;5412;59.450;18.124;2024-02-23T09:06:35;7.37;;;5.40;;
10721;SDS011;5412;59.450;18.124;2024-02-23T09:09:01;7.47;;;5.33;;
10721;SDS011;5412;59.450;18.124;2024-02-23T09:11:26;7.70;;;4.97;;
10721;SDS011;5412;59.450;18.124;2024-02-23T09:13:52;9.63;;;4.83;;
10721;SDS011;5412;59.450;18.124;2024-02-23T09:16:18;7.93;;;5.50;;
10721;SDS011;5412;59.450;18.124;2024-02-23T09:18:44;5.83;;;4.87;;
10721;SDS011;5412;59.450;18.124;2024-02-23T09:21:09;10.23;;;4.53;;
10721;SDS011;5412;59.450;18.124;2024-02-23T09:23:35;5.80;;;4.40;;
10721;SDS011;5412;59.450;18.124;2024-02-23T09:26:01;8.13;;;5.30;;
10721;SDS011;5412;59.450;18.124;2024-02-23T09:28:28;6.27;;;4.67;;
10721;SDS011;5412;59.450;18.124;2024-02-23T09:30:55;8.90;;;5.40;;
10721;SDS011;5412;59.450;18.124;2024-02-23T09:33:20;8.77;;;5.50;;
10721;SDS011;5412;59.450;18.124;2024-02-23T09:35:46;7.90;;;5.40;;
10721;SDS011;5412;59.450;18.124;2024-02-23T09:38:12;7.70;;;5.27;;
10721;SDS011;5412;59.450;18.124;2024-02-23T09:40:38;9.43;;;5.23;;
10721;SDS011;5412;59.450;18.124;2024-02-23T09:43:04;10.67;;;6.07;;
10721;SDS011;5412;59.450;18.124;2024-02-23T09:45:33;8.43;;;5.90;;
10721;SDS011;5412;59.450;18.124;2024-02-23T09:47:59;7.53;;;5.77;;
10721;SDS011;5412;59.450;18.124;2024-02-23T09:50:28;7.33;;;5.70;;
10721;SDS011;5412;59.450;18.124;2024-02-23T09:52:56;10.73;;;6.13;;
10721;SDS011;5412;59.450;18.124;2024-02-23T09:55:23;7.07;;;5.93;;
10721;SDS011;5412;59.450;18.124;2024-02-23T09:57:50;8.40;;;6.10;;
10721;SDS011;5412;59.450;18.124;2024-02-23T10:00:21;8.47;;;5.67;;
10721;SDS011;5412;59.450;18.124;2024-02-23T10:02:48;8.87;;;5.97;;
10721;SDS011;5412;59.450;18.124;2024-02-23T10:05:15;8.47;;;6.50;;
10721;SDS011;5412;59.450;18.124;2024-02-23T10:07:42;8.40;;;5.72;;
10721;SDS011;5412;59.450;18.124;2024-02-23T10:10:09;10.95;;;5.88;;
10721;SDS011;5412;59.450;18.124;2024-02-23T10:12:36;8.90;;;5.70;;
10721;SDS011;5412;59.450;18.124;2024-02-23T10:15:02;6.30;;;4.80;;
10721;SDS011;5412;59.450;18.124;2024-02-23T10:17:32;10.20;;;5.57;;
10721;SDS011;5412;59.450;18.124;2024-02-23T10:20:01;6.90;;;5.10;;
10721;SDS011;5412;59.450;18.124;2024-02-23T10:22:30;6.93;;;4.57;;
10721;SDS011;5412;59.450;18.124;2024-02-23T10:24:56;9.67;;;4.87;;
10721;SDS011;5412;59.450;18.124;2024-02-23T10:27:22;6.30;;;4.70;;
10721;SDS011;5412;59.450;18.124;2024-02-23T10:29:51;9.50;;;5.38;;
10721;SDS011;5412;59.450;18.124;2024-02-23T10:32:17;9.48;;;4.95;;
10721;SDS011;5412;59.450;18.124;2024-02-23T10:34:45;5.73;;;4.60;;
10721;SDS011;5412;59.450;18.124;2024-02-23T10:37:14;6.18;;;4.97;;
10721;SDS011;5412;59.450;18.124;2024-02-23T10:39:40;8.07;;;4.68;;
10721;SDS011;5412;59.450;18.124;2024-02-23T10:42:08;5.82;;;4.18;;
10721;SDS011;5412;59.450;18.124;2024-02-23T10:44:34;11.07;;;4.10;;
10721;SDS011;5412;59.450;18.124;2024-02-23T10:47:02;5.97;;;3.85;;
10721;SDS011;5412;59.450;18.124;2024-02-23T10:49:29;8.88;;;3.88;;
10721;SDS011;5412;59.450;18.124;2024-02-23T10:51:56;5.70;;;3.72;;
10721;SDS011;5412;59.450;18.124;2024-02-23T10:54:22;9.48;;;4.13;;
10721;SDS011;5412;59.450;18.124;2024-02-23T10:56:49;7.18;;;3.60;;
10721;SDS011;5412;59.450;18.124;2024-02-23T10:59:16;7.07;;;3.60;;
10721;SDS011;5412;59.450;18.124;2024-02-23T11:01:49;6.45;;;3.85;;
10721;SDS011;5412;59.450;18.124;2024-02-23T11:04:22;10.88;;;3.78;;
10721;SDS011;5412;59.450;18.124;2024-02-23T11:06:50;4.32;;;3.08;;
10721;SDS011;5412;59.450;18.124;2024-02-23T11:09:23;7.68;;;3.17;;
10721;SDS011;5412;59.450;18.124;2024-02-23T11:14:28;3.95;;;2.03;;
10721;SDS011;5412;59.450;18.124;2024-02-23T11:17:01;5.63;;;2.00;;
10721;SDS011;5412;59.450;18.124;2024-02-23T11:19:34;4.15;;;1.20;;
10721;SDS011;5412;59.450;18.124;2024-02-23T11:22:01;2.92;;;1.35;;
10721;SDS011;5412;59.450;18.124;2024-02-23T11:24:28;1.85;;;1.08;;
10721;SDS011;5412;59.450;18.124;2024-02-23T11:26:58;2.08;;;0.90;;
10721;SDS011;5412;59.450;18.124;2024-02-23T11:29:26;2.60;;;1.10;;
10721;SDS011;5412;59.450;18.124;2024-02-23T11:31:55;1.50;;;0.90;;
10721;SDS011;5412;59.450;18.124;2024-02-23T11:34:26;1.73;;;1.00;;
10721;SDS011;5412;59.450;18.124;2024-02-23T11:36:52;4.60;;;0.80;;
10721;SDS011;5412;59.450;18.124;2024-02-23T11:39:19;1.85;;;0.90;;
10721;SDS011;5412;59.450;18.124;2024-02-23T11:41:47;2.10;;;0.75;;
10721;SDS011;5412;59.450;18.124;2024-02-23T11:44:16;2.55;;;0.90;;
10721;SDS011;5412;59.450;18.124;2024-02-23T11:46:43;1.30;;;0.77;;
10721;SDS011;5412;59.450;18.124;2024-02-23T11:49:10;1.70;;;0.82;;
10721;SDS011;5412;59.450;18.124;2024-02-23T11:51:35;3.55;;;1.05;;
10721;SDS011;5412;59.450;18.124;2024-02-23T11:54:01;1.25;;;0.77;;
10721;SDS011;5412;59.450;18.124;2024-02-23T11:56:29;2.40;;;0.85;;
10721;SDS011;5412;59.450;18.124;2024-02-23T11:58:55;3.58;;;0.80;;
10721;SDS011;5412;59.450;18.124;2024-02-23T12:01:21;3.10;;;0.98;;
10721;SDS011;5412;59.450;18.124;2024-02-23T12:03:47;2.88;;;0.93;;
10721;SDS011;5412;59.450;18.124;2024-02-23T12:06:13;2.17;;;0.90;;
10721;SDS011;5412;59.450;18.124;2024-02-23T12:08:42;3.75;;;0.68;;
10721;SDS011;5412;59.450;18.124;2024-02-23T12:11:10;2.90;;;1.15;;
10721;SDS011;5412;59.450;18.124;2024-02-23T12:13:37;2.55;;;0.60;;
10721;SDS011;5412;59.450;18.124;2024-02-23T12:16:03;2.15;;;0.82;;
10721;SDS011;5412;59.450;18.124;2024-02-23T12:18:32;1.30;;;0.60;;
10721;SDS011;5412;59.450;18.124;2024-02-23T12:20:59;1.35;;;0.63;;
10721;SDS011;5412;59.450;18.124;2024-02-23T12:23:38;1.55;;;0.70;;
10721;SDS011;5412;59.450;18.124;2024-02-23T12:26:04;1.90;;;0.70;;
10721;SDS011;5412;59.450;18.124;2024-02-23T12:28:30;5.57;;;1.02;;
10721;SDS011;5412;59.450;18.124;2024-02-23T12:31:02;2.67;;;1.00;;
10721;SDS011;5412;59.450;18.124;2024-02-23T12:33:29;0.90;;;0.70;;
10721;SDS011;5412;59.450;18.124;2024-02-23T12:35:59;3.97;;;0.95;;
10721;SDS011;5412;59.450;18.124;2024-02-23T12:38:27;1.58;;;0.77;;
10721;SDS011;5412;59.450;18.124;2024-02-23T12:40:52;2.20;;;0.82;;
10721;SDS011;5412;59.450;18.124;2024-02-23T12:43:18;0.90;;;0.70;;
10721;SDS011;5412;59.450;18.124;2024-02-23T12:45:49;1.42;;;0.70;;
10721;SDS011;5412;59.450;18.124;2024-02-23T12:48:18;1.90;;;0.60;;
10721;SDS011;5412;59.450;18.124;2024-02-23T12:50:45;1.17;;;0.68;;
10721;SDS011;5412;59.450;18.124;2024-02-23T12:56:15;2.63;;;1.10;;
10721;SDS011;5412;59.450;18.124;2024-02-23T12:58:41;3.65;;;1.00;;
10721;SDS011;5412;59.450;18.124;2024-02-23T13:01:08;4.03;;;1.33;;
10721;SDS011;5412;59.450;18.124;2024-02-23T13:03:35;2.92;;;1.00;;
10721;SDS011;5412;59.450;18.124;2024-02-23T13:06:02;8.93;;;1.20;;
10721;SDS011;5412;59.450;18.124;2024-02-23T13:08:29;4.18;;;1.00;;
10721;SDS011;5412;59.450;18.124;2024-02-23T13:10:55;4.57;;;1.10;;
10721;SDS011;5412;59.450;18.124;2024-02-23T13:13:22;3.50;;;0.77;;
10721;SDS011;5412;59.450;18.124;2024-02-23T13:15:48;5.45;;;1.00;;
10721;SDS011;5412;59.450;18.124;2024-02-23T13:18:15;1.40;;;0.63;;
10721;SDS011;5412;59.450;18.124;2024-02-23T13:20:42;3.05;;;1.08;;
10721;SDS011;5412;59.450;18.124;2024-02-23T13:23:08;5.30;;;1.05;;
10721;SDS011;5412;59.450;18.124;2024-02-23T13:25:43;2.80;;;1.05;;
10721;SDS011;5412;59.450;18.124;2024-02-23T13:28:10;1.63;;;0.80;;
10721;SDS011;5412;59.450;18.124;2024-02-23T13:30:36;5.97;;;1.15;;
10721;SDS011;5412;59.450;18.124;2024-02-23T13:33:02;3.90;;;1.25;;
10721;SDS011;5412;59.450;18.124;2024-02-23T13:35:29;2.05;;;0.80;;
10721;SDS011;5412;59.450;18.124;2024-02-23T13:37:55;3.60;;;1.13;;
10721;SDS011;5412;59.450;18.124;2024-02-23T13:40:22;4.13;;;1.13;;
10721;SDS011;5412;59.450;18.124;2024-02-23T13:42:48;4.78;;;1.15;;
10721;SDS011;5412;59.450;18.124;2024-02-23T13:45:18;3.08;;;0.95;;
10721;SDS011;5412;59.450;18.124;2024-02-23T13:47:44;3.83;;;1.05;;
10721;SDS011;5412;59.450;18.124;2024-02-23T13:50:25;5.03;;;1.15;;
10721;SDS011;5412;59.450;18.124;2024-02-23T13:52:50;7.45;;;1.60;;
10721;SDS011;5412;59.450;18.124;2024-02-23T13:55:17;2.55;;;0.85;;
10721;SDS011;5412;59.450;18.124;2024-02-23T13:57:45;3.38;;;1.00;;
10721;SDS011;5412;59.450;18.124;2024-02-23T14:00:12;2.88;;;1.52;;
10721;SDS011;5412;59.450;18.124;2024-02-23T14:02:38;3.35;;;1.48;;
10721;SDS011;5412;59.450;18.124;2024-02-23T14:05:06;2.88;;;0.93;;
10721;SDS011;5412;59.450;18.124;2024-02-23T14:07:33;4.50;;;1.23;;
10721;SDS011;5412;59.450;18.124;2024-02-23T14:09:59;3.97;;;1.52;;
10721;SDS011;5412;59.450;18.124;2024-02-23T14:12:25;2.20;;;1.38;;
10721;SDS011;5412;59.450;18.124;2024-02-23T14:14:51;5.03;;;0.90;;
10721;SDS011;5412;59.450;18.124;2024-02-23T14:17:16;3.47;;;1.02;;
10721;SDS011;5412;59.450;18.124;2024-02-23T14:19:42;4.53;;;1.35;;
10721;SDS011;5412;59.450;18.124;2024-02-23T14:22:08;2.65;;;1.30;;
10721;SDS011;5412;59.450;18.124;2024-02-23T14:24:33;3.15;;;1.30;;
10721;SDS011;5412;59.450;18.124;2024-02-23T14:26:59;3.92;;;1.40;;
10721;SDS011;5412;59.450;18.124;2024-02-23T14:29:25;5.78;;;1.25;;
10721;SDS011;5412;59.450;18.124;2024-02-23T14:31:51;9.40;;;1.02;;
10721;SDS011;5412;59.450;18.124;2024-02-23T14:34:16;6.13;;;1.25;;
10721;SDS011;5412;59.450;18.124;2024-02-23T14:36:42;4.50;;;1.30;;
10721;SDS011;5412;59.450;18.124;2024-02-23T14:39:09;2.05;;;0.77;;